sensor_id;sensor_type;location;lat;lon;timestamp;temperature;humidity
1075;DHT22;526;51.392;12.448;2023-08-08T04:01:21;12.50;97.30
1075;DHT22;526;51.392;12.448;2023-08-08T04:03:46;12.50;97.30
1075;DHT22;526;51.392;12.448;2023-08-08T04:06:12;12.50;97.30
1075;DHT22;526;51.392;12.448;2023-08-08T04:08:37;12.50;97.30
1075;DHT22;526;51.392;12.448;2023-08-08T04:11:03;12.50;97.30
1075;DHT22;526;51.392;12.448;2023-08-08T04:13:28;12.50;97.30
1075;DHT22;526;51.392;12.448;2023-08-08T04:15:54;12.50;97.30
1075;DHT22;526;51.392;12.448;2023-08-08T04:18:20;12.60;97.30
1075;DHT22;526;51.392;12.448;2023-08-08T04:20:45;12.60;97.30
1075;DHT22;526;51.392;12.448;2023-08-08T04:23:12;12.60;97.30
1075;DHT22;526;51.392;12.448;2023-08-08T04:25:38;12.70;97.30
1075;DHT22;526;51.392;12.448;2023-08-08T04:28:03;12.70;97.30
1075;DHT22;526;51.392;12.448;2023-08-08T04:30:29;12.80;97.30
1075;DHT22;526;51.392;12.448;2023-08-08T04:32:54;12.80;97.30
1075;DHT22;526;51.392;12.448;2023-08-08T04:35:20;12.80;97.30
1075;DHT22;526;51.392;12.448;2023-08-08T04:37:46;12.90;97.30
1075;DHT22;526;51.392;12.448;2023-08-08T04:40:11;12.90;97.30
1075;DHT22;526;51.392;12.448;2023-08-08T04:42:37;12.90;97.30
1075;DHT22;526;51.392;12.448;2023-08-08T04:45:03;13.00;97.30
1075;DHT22;526;51.392;12.448;2023-08-08T04:47:29;13.00;97.30
1075;DHT22;526;51.392;12.448;2023-08-08T04:49:54;13.00;97.30
1075;DHT22;526;51.392;12.448;2023-08-08T04:52:20;13.10;97.30
1075;DHT22;526;51.392;12.448;2023-08-08T04:54:45;13.10;97.30
1075;DHT22;526;51.392;12.448;2023-08-08T04:57:11;13.10;97.30
1075;DHT22;526;51.392;12.448;2023-08-08T04:59:36;13.10;97.30
1075;DHT22;526;51.392;12.448;2023-08-08T05:02:02;13.10;97.30
1075;DHT22;526;51.392;12.448;2023-08-08T05:04:27;13.20;97.30
1075;DHT22;526;51.392;12.448;2023-08-08T05:06:53;13.20;97.30
1075;DHT22;526;51.392;12.448;2023-08-08T05:09:19;13.20;97.30
1075;DHT22;526;51.392;12.448;2023-08-08T05:11:46;13.20;97.30
1075;DHT22;526;51.392;12.448;2023-08-08T05:14:11;13.20;97.30
1075;DHT22;526;51.392;12.448;2023-08-08T05:16:37;13.20;97.30
1075;DHT22;526;51.392;12.448;2023-08-08T05:19:04;13.30;97.30
1075;DHT22;526;51.392;12.448;2023-08-08T05:21:29;13.30;97.30
1075;DHT22;526;51.392;12.448;2023-08-08T05:23:55;13.30;97.30
1075;DHT22;526;51.392;12.448;2023-08-08T05:26:20;13.30;97.30
1075;DHT22;526;51.392;12.448;2023-08-08T05:28:46;13.30;97.30
1075;DHT22;526;51.392;12.448;2023-08-08T05:31:11;13.30;97.30
1075;DHT22;526;51.392;12.448;2023-08-08T05:33:37;13.40;97.30
1075;DHT22;526;51.392;12.448;2023-08-08T05:36:03;13.40;97.30
1075;DHT22;526;51.392;12.448;2023-08-08T05:38:28;13.40;97.30
1075;DHT22;526;51.392;12.448;2023-08-08T05:40:54;13.40;97.30
1075;DHT22;526;51.392;12.448;2023-08-08T05:43:19;13.40;97.30
1075;DHT22;526;51.392;12.448;2023-08-08T05:45:47;13.40;97.30
1075;DHT22;526;51.392;12.448;2023-08-08T05:48:12;13.50;97.30
1075;DHT22;526;51.392;12.448;2023-08-08T05:50:39;13.50;97.30
1075;DHT22;526;51.392;12.448;2023-08-08T05:53:04;13.50;97.30
1075;DHT22;526;51.392;12.448;2023-08-08T05:55:30;13.50;97.30
1075;DHT22;526;51.392;12.448;2023-08-08T05:57:56;13.50;97.30
1075;DHT22;526;51.392;12.448;2023-08-08T06:00:21;13.50;97.30
1075;DHT22;526;51.392;12.448;2023-08-08T06:02:47;13.60;97.30
1075;DHT22;526;51.392;12.448;2023-08-08T06:05:12;13.60;97.30
1075;DHT22;526;51.392;12.448;2023-08-08T06:07:38;13.60;97.30
1075;DHT22;526;51.392;12.448;2023-08-08T06:10:05;13.60;97.30
1075;DHT22;526;51.392;12.448;2023-08-08T06:12:31;13.70;97.30
1075;DHT22;526;51.392;12.448;2023-08-08T06:14:56;13.70;97.30
1075;DHT22;526;51.392;12.448;2023-08-08T06:17:22;13.70;97.30
1075;DHT22;526;51.392;12.448;2023-08-08T06:19:49;13.80;97.30
1075;DHT22;526;51.392;12.448;2023-08-08T06:22:15;13.80;97.30
1075;DHT22;526;51.392;12.448;2023-08-08T06:24:41;13.90;97.30
1075;DHT22;526;51.392;12.448;2023-08-08T06:27:07;13.90;97.30
1075;DHT22;526;51.392;12.448;2023-08-08T06:29:32;14.00;97.30
1075;DHT22;526;51.392;12.448;2023-08-08T06:31:58;14.00;97.30
1075;DHT22;526;51.392;12.448;2023-08-08T06:34:23;14.10;97.30
1075;DHT22;526;51.392;12.448;2023-08-08T06:36:49;14.10;97.30
1075;DHT22;526;51.392;12.448;2023-08-08T06:39:18;14.10;97.30
1075;DHT22;526;51.392;12.448;2023-08-08T06:41:46;14.10;97.30
1075;DHT22;526;51.392;12.448;2023-08-08T06:44:11;14.20;97.30
1075;DHT22;526;51.392;12.448;2023-08-08T06:46:37;14.20;97.30
1075;DHT22;526;51.392;12.448;2023-08-08T06:49:02;14.20;97.30
1075;DHT22;526;51.392;12.448;2023-08-08T06:51:29;14.20;97.30
1075;DHT22;526;51.392;12.448;2023-08-08T06:53:55;14.30;97.30
1075;DHT22;526;51.392;12.448;2023-08-08T06:56:21;14.30;97.30
1075;DHT22;526;51.392;12.448;2023-08-08T06:58:46;14.40;97.30
1075;DHT22;526;51.392;12.448;2023-08-08T07:01:12;14.50;97.30
1075;DHT22;526;51.392;12.448;2023-08-08T07:03:39;14.50;97.30
1075;DHT22;526;51.392;12.448;2023-08-08T07:06:04;14.60;97.30
1075;DHT22;526;51.392;12.448;2023-08-08T07:08:31;14.70;97.30
1075;DHT22;526;51.392;12.448;2023-08-08T07:10:57;14.70;97.30
1075;DHT22;526;51.392;12.448;2023-08-08T07:13:23;14.80;97.30
1075;DHT22;526;51.392;12.448;2023-08-08T07:15:48;14.90;97.30
1075;DHT22;526;51.392;12.448;2023-08-08T07:18:14;15.00;97.30
1075;DHT22;526;51.392;12.448;2023-08-08T07:20:40;15.00;97.30
1075;DHT22;526;51.392;12.448;2023-08-08T07:23:06;15.00;97.30
1075;DHT22;526;51.392;12.448;2023-08-08T07:25:31;15.00;97.30
1075;DHT22;526;51.392;12.448;2023-08-08T07:27:57;15.10;97.30
1075;DHT22;526;51.392;12.448;2023-08-08T07:30:23;15.10;97.30
1075;DHT22;526;51.392;12.448;2023-08-08T07:32:50;15.10;97.30
1075;DHT22;526;51.392;12.448;2023-08-08T07:35:16;15.10;97.30
1075;DHT22;526;51.392;12.448;2023-08-08T07:37:43;15.00;97.30
1075;DHT22;526;51.392;12.448;2023-08-08T07:40:18;15.00;97.30
1075;DHT22;526;51.392;12.448;2023-08-08T07:42:45;15.00;97.30
1075;DHT22;526;51.392;12.448;2023-08-08T07:45:11;14.90;97.30
1075;DHT22;526;51.392;12.448;2023-08-08T07:47:36;14.90;97.30
1075;DHT22;526;51.392;12.448;2023-08-08T07:50:02;14.90;97.30
1075;DHT22;526;51.392;12.448;2023-08-08T07:52:36;14.80;97.30
1075;DHT22;526;51.392;12.448;2023-08-08T07:55:05;14.80;97.30
1075;DHT22;526;51.392;12.448;2023-08-08T07:57:32;14.80;97.30
1075;DHT22;526;51.392;12.448;2023-08-08T08:00:00;14.80;97.30
1075;DHT22;526;51.392;12.448;2023-08-08T08:02:32;14.80;97.30
1075;DHT22;526;51.392;12.448;2023-08-08T08:04:57;14.80;97.30
1075;DHT22;526;51.392;12.448;2023-08-08T08:07:23;14.80;97.30
1075;DHT22;526;51.392;12.448;2023-08-08T08:09:49;14.80;97.30
1075;DHT22;526;51.392;12.448;2023-08-08T08:12:14;14.80;97.30
1075;DHT22;526;51.392;12.448;2023-08-08T08:14:40;14.80;97.30
1075;DHT22;526;51.392;12.448;2023-08-08T08:17:05;14.80;97.30
1075;DHT22;526;51.392;12.448;2023-08-08T08:19:31;14.80;97.30
1075;DHT22;526;51.392;12.448;2023-08-08T08:21:59;14.80;97.30
1075;DHT22;526;51.392;12.448;2023-08-08T08:24:24;14.80;97.30
1075;DHT22;526;51.392;12.448;2023-08-08T08:26:53;14.80;97.30
1075;DHT22;526;51.392;12.448;2023-08-08T08:29:27;14.90;97.30
1075;DHT22;526;51.392;12.448;2023-08-08T08:31:58;14.90;97.30
1075;DHT22;526;51.392;12.448;2023-08-08T08:34:49;15.00;97.30
1075;DHT22;526;51.392;12.448;2023-08-08T08:37:22;15.00;97.30
1075;DHT22;526;51.392;12.448;2023-08-08T08:39:50;15.00;97.30
1075;DHT22;526;51.392;12.448;2023-08-08T08:42:18;15.00;97.30
1075;DHT22;526;51.392;12.448;2023-08-08T08:44:45;15.00;97.30
1075;DHT22;526;51.392;12.448;2023-08-08T08:47:12;15.00;97.30
1075;DHT22;526;51.392;12.448;2023-08-08T08:49:39;15.00;97.30
1075;DHT22;526;51.392;12.448;2023-08-08T08:52:07;15.00;97.30
1075;DHT22;526;51.392;12.448;2023-08-08T08:54:33;15.00;97.30
1075;DHT22;526;51.392;12.448;2023-08-08T08:57:00;15.10;97.30
1075;DHT22;526;51.392;12.448;2023-08-08T08:59:26;15.00;97.30
1075;DHT22;526;51.392;12.448;2023-08-08T09:01:52;15.00;97.30
1075;DHT22;526;51.392;12.448;2023-08-08T09:04:20;15.00;97.30
1075;DHT22;526;51.392;12.448;2023-08-08T09:06:47;15.00;97.30
1075;DHT22;526;51.392;12.448;2023-08-08T09:09:13;14.90;97.30
1075;DHT22;526;51.392;12.448;2023-08-08T09:11:42;14.90;97.30
1075;DHT22;526;51.392;12.448;2023-08-08T09:14:25;14.90;97.30
1075;DHT22;526;51.392;12.448;2023-08-08T09:16:53;14.80;97.30
1075;DHT22;526;51.392;12.448;2023-08-08T09:19:20;14.80;97.30
1075;DHT22;526;51.392;12.448;2023-08-08T09:21:47;14.80;97.30
1075;DHT22;526;51.392;12.448;2023-08-08T09:24:13;14.80;97.30
1075;DHT22;526;51.392;12.448;2023-08-08T09:26:40;14.80;97.30
1075;DHT22;526;51.392;12.448;2023-08-08T09:29:06;14.80;97.30
1075;DHT22;526;51.392;12.448;2023-08-08T09:31:35;14.80;97.30
1075;DHT22;526;51.392;12.448;2023-08-08T09:34:03;14.80;97.30
1075;DHT22;526;51.392;12.448;2023-08-08T09:36:29;14.80;97.30
1075;DHT22;526;51.392;12.448;2023-08-08T09:38:55;14.90;97.30
1075;DHT22;526;51.392;12.448;2023-08-08T09:41:24;15.00;97.30
1075;DHT22;526;51.392;12.448;2023-08-08T09:43:52;15.20;97.30
1075;DHT22;526;51.392;12.448;2023-08-08T09:46:21;15.30;97.30
1075;DHT22;526;51.392;12.448;2023-08-08T09:48:47;15.40;97.30
1075;DHT22;526;51.392;12.448;2023-08-08T09:51:13;15.60;97.30
1075;DHT22;526;51.392;12.448;2023-08-08T09:53:40;15.80;97.30
1075;DHT22;526;51.392;12.448;2023-08-08T09:56:06;15.90;97.30
1075;DHT22;526;51.392;12.448;2023-08-08T09:58:32;16.10;97.30
1075;DHT22;526;51.392;12.448;2023-08-08T10:00:58;16.20;97.30
1075;DHT22;526;51.392;12.448;2023-08-08T10:03:24;16.30;97.30
1075;DHT22;526;51.392;12.448;2023-08-08T10:05:50;16.40;97.30
1075;DHT22;526;51.392;12.448;2023-08-08T10:08:16;16.50;97.30
1075;DHT22;526;51.392;12.448;2023-08-08T10:10:44;16.70;97.30
1075;DHT22;526;51.392;12.448;2023-08-08T10:13:10;16.90;97.30
1075;DHT22;526;51.392;12.448;2023-08-08T10:15:43;17.20;97.30
1075;DHT22;526;51.392;12.448;2023-08-08T10:18:09;17.50;97.30
1075;DHT22;526;51.392;12.448;2023-08-08T10:20:36;17.60;97.30
1075;DHT22;526;51.392;12.448;2023-08-08T10:23:03;17.70;97.30
1075;DHT22;526;51.392;12.448;2023-08-08T10:25:30;17.70;96.40
1075;DHT22;526;51.392;12.448;2023-08-08T10:28:10;17.70;96.30
1075;DHT22;526;51.392;12.448;2023-08-08T10:33:22;17.70;96.70
1075;DHT22;526;51.392;12.448;2023-08-08T10:36:04;17.60;96.60
1075;DHT22;526;51.392;12.448;2023-08-08T10:38:46;17.60;97.10
1075;DHT22;526;51.392;12.448;2023-08-08T10:41:20;17.40;97.30
1075;DHT22;526;51.392;12.448;2023-08-08T10:43:54;17.40;97.30
1075;DHT22;526;51.392;12.448;2023-08-08T10:46:29;17.50;97.30
1075;DHT22;526;51.392;12.448;2023-08-08T10:48:59;17.60;97.30
1075;DHT22;526;51.392;12.448;2023-08-08T10:51:39;17.70;97.30
1075;DHT22;526;51.392;12.448;2023-08-08T10:54:18;17.80;96.80
1075;DHT22;526;51.392;12.448;2023-08-08T10:56:52;17.90;96.10
1075;DHT22;526;51.392;12.448;2023-08-08T10:59:26;17.90;95.80
1075;DHT22;526;51.392;12.448;2023-08-08T11:01:52;17.90;95.70
1075;DHT22;526;51.392;12.448;2023-08-08T11:04:20;17.80;95.40
1075;DHT22;526;51.392;12.448;2023-08-08T11:06:47;17.80;94.40
1075;DHT22;526;51.392;12.448;2023-08-08T11:09:14;17.90;95.50
1075;DHT22;526;51.392;12.448;2023-08-08T11:11:41;18.00;94.70
1075;DHT22;526;51.392;12.448;2023-08-08T11:14:14;18.20;94.90
1075;DHT22;526;51.392;12.448;2023-08-08T11:16:41;18.30;94.90
1075;DHT22;526;51.392;12.448;2023-08-08T11:19:08;18.40;94.40
1075;DHT22;526;51.392;12.448;2023-08-08T11:21:38;18.40;93.90
1075;DHT22;526;51.392;12.448;2023-08-08T11:24:05;18.40;94.20
1075;DHT22;526;51.392;12.448;2023-08-08T11:26:32;18.50;94.70
1075;DHT22;526;51.392;12.448;2023-08-08T11:28:59;18.70;95.10
1075;DHT22;526;51.392;12.448;2023-08-08T11:31:25;18.80;93.70
1075;DHT22;526;51.392;12.448;2023-08-08T11:33:53;19.00;94.40
1075;DHT22;526;51.392;12.448;2023-08-08T11:36:19;19.20;93.70
1075;DHT22;526;51.392;12.448;2023-08-08T11:38:46;19.40;93.50
1075;DHT22;526;51.392;12.448;2023-08-08T11:41:13;19.50;91.80
1075;DHT22;526;51.392;12.448;2023-08-08T11:43:41;19.70;91.20
1075;DHT22;526;51.392;12.448;2023-08-08T11:46:11;19.80;92.10
1075;DHT22;526;51.392;12.448;2023-08-08T11:48:37;19.80;92.50
1075;DHT22;526;51.392;12.448;2023-08-08T11:51:07;20.00;92.10
1075;DHT22;526;51.392;12.448;2023-08-08T11:53:34;20.20;90.80
1075;DHT22;526;51.392;12.448;2023-08-08T11:56:00;20.20;89.30
1075;DHT22;526;51.392;12.448;2023-08-08T11:58:26;20.10;89.20
1075;DHT22;526;51.392;12.448;2023-08-08T12:00:52;20.10;89.90
1075;DHT22;526;51.392;12.448;2023-08-08T12:03:20;20.00;90.00
1075;DHT22;526;51.392;12.448;2023-08-08T12:05:46;20.10;90.50
1075;DHT22;526;51.392;12.448;2023-08-08T12:08:12;20.10;89.00
1075;DHT22;526;51.392;12.448;2023-08-08T12:10:38;19.90;88.30
1075;DHT22;526;51.392;12.448;2023-08-08T12:13:04;19.70;89.80
1075;DHT22;526;51.392;12.448;2023-08-08T12:15:35;19.50;89.40
1075;DHT22;526;51.392;12.448;2023-08-08T12:18:01;19.40;90.10
1075;DHT22;526;51.392;12.448;2023-08-08T12:20:28;19.30;90.90
1075;DHT22;526;51.392;12.448;2023-08-08T12:22:55;19.30;90.90
1075;DHT22;526;51.392;12.448;2023-08-08T12:25:20;19.30;90.80
1075;DHT22;526;51.392;12.448;2023-08-08T12:27:46;19.40;90.90
1075;DHT22;526;51.392;12.448;2023-08-08T12:30:12;19.50;90.40
1075;DHT22;526;51.392;12.448;2023-08-08T12:32:37;19.80;90.20
1075;DHT22;526;51.392;12.448;2023-08-08T12:35:03;20.10;90.10
1075;DHT22;526;51.392;12.448;2023-08-08T12:37:29;20.30;88.20
1075;DHT22;526;51.392;12.448;2023-08-08T12:39:55;20.60;88.50
1075;DHT22;526;51.392;12.448;2023-08-08T12:42:20;20.80;87.00
1075;DHT22;526;51.392;12.448;2023-08-08T12:44:46;20.90;88.10
1075;DHT22;526;51.392;12.448;2023-08-08T12:47:12;20.90;86.40
1075;DHT22;526;51.392;12.448;2023-08-08T12:49:38;21.00;86.70
1075;DHT22;526;51.392;12.448;2023-08-08T12:52:04;20.90;85.80
1075;DHT22;526;51.392;12.448;2023-08-08T12:54:29;20.80;84.90
1075;DHT22;526;51.392;12.448;2023-08-08T12:56:55;20.70;86.20
1075;DHT22;526;51.392;12.448;2023-08-08T12:59:21;20.70;86.90
1075;DHT22;526;51.392;12.448;2023-08-08T13:01:46;20.80;86.60
1075;DHT22;526;51.392;12.448;2023-08-08T13:04:12;20.90;85.00
1075;DHT22;526;51.392;12.448;2023-08-08T13:06:38;20.90;85.20
1075;DHT22;526;51.392;12.448;2023-08-08T13:09:03;21.10;86.10
1075;DHT22;526;51.392;12.448;2023-08-08T13:11:29;21.30;85.20
1075;DHT22;526;51.392;12.448;2023-08-08T13:13:55;21.50;84.90
1075;DHT22;526;51.392;12.448;2023-08-08T13:16:21;21.40;84.10
1075;DHT22;526;51.392;12.448;2023-08-08T13:18:47;21.20;83.60
1075;DHT22;526;51.392;12.448;2023-08-08T13:21:13;21.00;83.80
1075;DHT22;526;51.392;12.448;2023-08-08T13:23:40;20.90;84.80
1075;DHT22;526;51.392;12.448;2023-08-08T13:26:05;20.70;84.90
1075;DHT22;526;51.392;12.448;2023-08-08T13:28:31;20.60;84.60
1075;DHT22;526;51.392;12.448;2023-08-08T13:30:57;20.50;85.50
1075;DHT22;526;51.392;12.448;2023-08-08T13:33:22;20.50;85.80
1075;DHT22;526;51.392;12.448;2023-08-08T13:35:48;20.40;85.80
1075;DHT22;526;51.392;12.448;2023-08-08T13:38:13;20.30;85.80
1075;DHT22;526;51.392;12.448;2023-08-08T13:40:43;20.30;85.30
1075;DHT22;526;51.392;12.448;2023-08-08T13:43:09;20.20;86.00
1075;DHT22;526;51.392;12.448;2023-08-08T13:45:35;20.10;85.30
1075;DHT22;526;51.392;12.448;2023-08-08T13:48:01;20.00;86.20
1075;DHT22;526;51.392;12.448;2023-08-08T13:50:26;20.00;89.20
1075;DHT22;526;51.392;12.448;2023-08-08T13:52:52;19.80;90.40
1075;DHT22;526;51.392;12.448;2023-08-08T13:55:18;19.70;90.30
1075;DHT22;526;51.392;12.448;2023-08-08T13:57:44;19.70;90.40
1075;DHT22;526;51.392;12.448;2023-08-08T14:00:10;19.80;91.30
1075;DHT22;526;51.392;12.448;2023-08-08T14:02:38;19.80;90.30
1075;DHT22;526;51.392;12.448;2023-08-08T14:05:04;19.90;89.20
1075;DHT22;526;51.392;12.448;2023-08-08T14:07:34;20.00;88.70
1075;DHT22;526;51.392;12.448;2023-08-08T14:10:01;20.00;86.10
1075;DHT22;526;51.392;12.448;2023-08-08T14:12:27;19.90;85.10
1075;DHT22;526;51.392;12.448;2023-08-08T14:14:53;19.80;84.90
1075;DHT22;526;51.392;12.448;2023-08-08T14:17:18;19.80;85.80
1075;DHT22;526;51.392;12.448;2023-08-08T14:19:44;19.70;86.20
1075;DHT22;526;51.392;12.448;2023-08-08T14:22:09;19.60;87.10
1075;DHT22;526;51.392;12.448;2023-08-08T14:24:36;19.40;88.10
1075;DHT22;526;51.392;12.448;2023-08-08T14:27:02;19.20;89.30
1075;DHT22;526;51.392;12.448;2023-08-08T14:29:27;19.00;90.60
1075;DHT22;526;51.392;12.448;2023-08-08T14:31:53;18.90;92.00
1075;DHT22;526;51.392;12.448;2023-08-08T14:34:18;18.80;91.50
1075;DHT22;526;51.392;12.448;2023-08-08T14:36:44;18.80;93.90
1075;DHT22;526;51.392;12.448;2023-08-08T14:39:10;18.90;91.60
1075;DHT22;526;51.392;12.448;2023-08-08T14:41:36;18.80;91.20
1075;DHT22;526;51.392;12.448;2023-08-08T14:44:02;18.80;92.00
1075;DHT22;526;51.392;12.448;2023-08-08T14:46:28;18.80;92.30
1075;DHT22;526;51.392;12.448;2023-08-08T14:48:54;18.70;92.60
1075;DHT22;526;51.392;12.448;2023-08-08T14:51:20;18.70;93.90
1075;DHT22;526;51.392;12.448;2023-08-08T14:53:46;18.70;94.20
1075;DHT22;526;51.392;12.448;2023-08-08T14:56:11;18.70;94.00
1075;DHT22;526;51.392;12.448;2023-08-08T14:58:37;18.60;93.30
1075;DHT22;526;51.392;12.448;2023-08-08T15:01:02;18.60;94.10
1075;DHT22;526;51.392;12.448;2023-08-08T15:03:28;18.50;94.00
1075;DHT22;526;51.392;12.448;2023-08-08T15:05:53;18.50;93.90
1075;DHT22;526;51.392;12.448;2023-08-08T15:08:19;18.40;93.60
1075;DHT22;526;51.392;12.448;2023-08-08T15:10:46;18.40;94.30
1075;DHT22;526;51.392;12.448;2023-08-08T15:13:12;18.40;94.10
1075;DHT22;526;51.392;12.448;2023-08-08T15:15:37;18.40;94.00
1075;DHT22;526;51.392;12.448;2023-08-08T15:18:03;18.30;94.60
1075;DHT22;526;51.392;12.448;2023-08-08T15:20:29;18.30;94.70
1075;DHT22;526;51.392;12.448;2023-08-08T15:22:54;18.30;93.60
1075;DHT22;526;51.392;12.448;2023-08-08T15:25:20;18.30;93.60
1075;DHT22;526;51.392;12.448;2023-08-08T15:27:45;18.30;93.40
1075;DHT22;526;51.392;12.448;2023-08-08T15:30:11;18.30;93.60
1075;DHT22;526;51.392;12.448;2023-08-08T15:32:37;18.30;93.70
1075;DHT22;526;51.392;12.448;2023-08-08T15:35:03;18.30;93.60
1075;DHT22;526;51.392;12.448;2023-08-08T15:37:28;18.20;92.90
1075;DHT22;526;51.392;12.448;2023-08-08T15:39:54;18.20;92.30
1075;DHT22;526;51.392;12.448;2023-08-08T15:42:20;18.20;92.80
1075;DHT22;526;51.392;12.448;2023-08-08T15:44:45;18.30;92.80
1075;DHT22;526;51.392;12.448;2023-08-08T15:47:11;18.40;93.30
1075;DHT22;526;51.392;12.448;2023-08-08T15:49:37;18.40;92.60
1075;DHT22;526;51.392;12.448;2023-08-08T15:52:02;18.50;92.30
1075;DHT22;526;51.392;12.448;2023-08-08T15:54:28;18.50;92.50
1075;DHT22;526;51.392;12.448;2023-08-08T15:56:54;18.60;92.10
1075;DHT22;526;51.392;12.448;2023-08-08T15:59:19;18.80;92.40
1075;DHT22;526;51.392;12.448;2023-08-08T16:01:46;18.80;91.70
1075;DHT22;526;51.392;12.448;2023-08-08T16:04:12;18.80;92.20
1075;DHT22;526;51.392;12.448;2023-08-08T16:06:40;18.70;92.40
1075;DHT22;526;51.392;12.448;2023-08-08T16:09:06;18.60;93.20
1075;DHT22;526;51.392;12.448;2023-08-08T16:11:31;18.50;93.10
1075;DHT22;526;51.392;12.448;2023-08-08T16:13:57;18.50;92.70
1075;DHT22;526;51.392;12.448;2023-08-08T16:16:22;18.40;92.40
1075;DHT22;526;51.392;12.448;2023-08-08T16:18:48;18.40;92.50
1075;DHT22;526;51.392;12.448;2023-08-08T16:21:13;18.40;92.90
1075;DHT22;526;51.392;12.448;2023-08-08T16:23:39;18.40;92.60
1075;DHT22;526;51.392;12.448;2023-08-08T16:26:04;18.40;92.80
1075;DHT22;526;51.392;12.448;2023-08-08T16:28:30;18.40;92.40
1075;DHT22;526;51.392;12.448;2023-08-08T16:30:56;18.40;92.30
1075;DHT22;526;51.392;12.448;2023-08-08T16:33:21;18.40;92.50
1075;DHT22;526;51.392;12.448;2023-08-08T16:35:48;18.40;92.60
1075;DHT22;526;51.392;12.448;2023-08-08T16:38:13;18.40;92.70
1075;DHT22;526;51.392;12.448;2023-08-08T16:40:39;18.40;93.00
1075;DHT22;526;51.392;12.448;2023-08-08T16:43:05;18.30;92.90
1075;DHT22;526;51.392;12.448;2023-08-08T16:45:30;18.30;93.10
1075;DHT22;526;51.392;12.448;2023-08-08T16:47:56;18.30;93.30
1075;DHT22;526;51.392;12.448;2023-08-08T16:50:22;18.20;93.40
1075;DHT22;526;51.392;12.448;2023-08-08T16:52:48;18.20;93.00
1075;DHT22;526;51.392;12.448;2023-08-08T16:55:14;18.10;93.20
1075;DHT22;526;51.392;12.448;2023-08-08T16:57:39;18.10;93.20
1075;DHT22;526;51.392;12.448;2023-08-08T17:00:06;18.10;93.50
1075;DHT22;526;51.392;12.448;2023-08-08T17:02:36;18.00;93.40
1075;DHT22;526;51.392;12.448;2023-08-08T17:05:02;18.00;93.70
1075;DHT22;526;51.392;12.448;2023-08-08T17:07:28;18.00;94.00
1075;DHT22;526;51.392;12.448;2023-08-08T17:09:55;18.00;94.20
1075;DHT22;526;51.392;12.448;2023-08-08T17:12:21;18.00;93.90
1075;DHT22;526;51.392;12.448;2023-08-08T17:14:47;18.00;93.80
1075;DHT22;526;51.392;12.448;2023-08-08T17:17:13;18.10;94.10
1075;DHT22;526;51.392;12.448;2023-08-08T17:19:38;18.10;93.40
1075;DHT22;526;51.392;12.448;2023-08-08T17:22:04;18.20;93.30
1075;DHT22;526;51.392;12.448;2023-08-08T17:24:30;18.20;93.00
1075;DHT22;526;51.392;12.448;2023-08-08T17:26:56;18.30;92.80
1075;DHT22;526;51.392;12.448;2023-08-08T17:29:22;18.20;92.80
1075;DHT22;526;51.392;12.448;2023-08-08T17:31:47;18.30;92.70
1075;DHT22;526;51.392;12.448;2023-08-08T17:34:13;18.30;92.50
1075;DHT22;526;51.392;12.448;2023-08-08T17:36:38;18.20;92.00
1075;DHT22;526;51.392;12.448;2023-08-08T17:39:04;18.20;92.10
1075;DHT22;526;51.392;12.448;2023-08-08T17:41:30;18.10;92.20
1075;DHT22;526;51.392;12.448;2023-08-08T17:43:55;18.10;92.10
1075;DHT22;526;51.392;12.448;2023-08-08T17:46:21;18.10;92.10
1075;DHT22;526;51.392;12.448;2023-08-08T17:48:47;18.10;92.70
1075;DHT22;526;51.392;12.448;2023-08-08T17:51:12;18.10;92.50
1075;DHT22;526;51.392;12.448;2023-08-08T17:53:38;18.00;92.70
1075;DHT22;526;51.392;12.448;2023-08-08T17:56:03;18.00;92.30
1075;DHT22;526;51.392;12.448;2023-08-08T17:58:29;18.00;92.20
1075;DHT22;526;51.392;12.448;2023-08-08T18:00:55;17.90;92.50
1075;DHT22;526;51.392;12.448;2023-08-08T18:03:21;17.90;92.40
1075;DHT22;526;51.392;12.448;2023-08-08T18:05:46;17.90;92.80
1075;DHT22;526;51.392;12.448;2023-08-08T18:08:12;17.80;92.80
1075;DHT22;526;51.392;12.448;2023-08-08T18:10:41;17.80;92.80
1075;DHT22;526;51.392;12.448;2023-08-08T18:13:06;17.80;92.90
1075;DHT22;526;51.392;12.448;2023-08-08T18:15:33;17.70;92.90
1075;DHT22;526;51.392;12.448;2023-08-08T18:17:59;17.70;93.00
1075;DHT22;526;51.392;12.448;2023-08-08T18:20:25;17.70;92.80
1075;DHT22;526;51.392;12.448;2023-08-08T18:22:51;17.60;92.40
1075;DHT22;526;51.392;12.448;2023-08-08T18:25:18;17.60;92.60
1075;DHT22;526;51.392;12.448;2023-08-08T18:27:44;17.50;92.60
1075;DHT22;526;51.392;12.448;2023-08-08T18:30:10;17.50;92.80
1075;DHT22;526;51.392;12.448;2023-08-08T18:32:35;17.50;93.00
1075;DHT22;526;51.392;12.448;2023-08-08T18:35:01;17.50;93.20
1075;DHT22;526;51.392;12.448;2023-08-08T18:37:27;17.40;93.30
1075;DHT22;526;51.392;12.448;2023-08-08T18:39:52;17.40;93.70
1075;DHT22;526;51.392;12.448;2023-08-08T18:42:18;17.40;93.80
1075;DHT22;526;51.392;12.448;2023-08-08T18:44:44;17.30;93.90
1075;DHT22;526;51.392;12.448;2023-08-08T18:47:09;17.30;94.20
1075;DHT22;526;51.392;12.448;2023-08-08T18:49:35;17.20;94.50
1075;DHT22;526;51.392;12.448;2023-08-08T18:52:00;17.20;94.80
1075;DHT22;526;51.392;12.448;2023-08-08T18:54:26;17.20;94.90
1075;DHT22;526;51.392;12.448;2023-08-08T18:56:51;17.10;95.10
1075;DHT22;526;51.392;12.448;2023-08-08T18:59:17;17.10;95.20
1075;DHT22;526;51.392;12.448;2023-08-08T19:01:42;17.10;95.40
1075;DHT22;526;51.392;12.448;2023-08-08T19:04:08;17.00;95.60
1075;DHT22;526;51.392;12.448;2023-08-08T19:06:33;17.00;95.80
1075;DHT22;526;51.392;12.448;2023-08-08T19:08:59;17.00;95.90
1075;DHT22;526;51.392;12.448;2023-08-08T19:11:27;17.00;96.00
1075;DHT22;526;51.392;12.448;2023-08-08T19:13:53;16.90;96.00
1075;DHT22;526;51.392;12.448;2023-08-08T19:16:18;16.90;96.20
1075;DHT22;526;51.392;12.448;2023-08-08T19:18:44;16.90;96.10
1075;DHT22;526;51.392;12.448;2023-08-08T19:21:10;16.90;96.00
1075;DHT22;526;51.392;12.448;2023-08-08T19:23:35;16.80;96.20
1075;DHT22;526;51.392;12.448;2023-08-08T19:26:01;16.80;96.40
1075;DHT22;526;51.392;12.448;2023-08-08T19:28:27;16.80;96.20
1075;DHT22;526;51.392;12.448;2023-08-08T19:30:53;16.80;96.10
1075;DHT22;526;51.392;12.448;2023-08-08T19:33:18;16.70;96.20
1075;DHT22;526;51.392;12.448;2023-08-08T19:35:44;16.70;96.40
1075;DHT22;526;51.392;12.448;2023-08-08T19:38:11;16.70;96.20
1075;DHT22;526;51.392;12.448;2023-08-08T19:40:36;16.60;96.30
1075;DHT22;526;51.392;12.448;2023-08-08T19:43:02;16.60;96.50
1075;DHT22;526;51.392;12.448;2023-08-08T19:45:28;16.60;96.50
1075;DHT22;526;51.392;12.448;2023-08-08T19:47:54;16.60;96.70
1075;DHT22;526;51.392;12.448;2023-08-08T19:50:19;16.50;96.90
1075;DHT22;526;51.392;12.448;2023-08-08T19:52:45;16.50;97.10
1075;DHT22;526;51.392;12.448;2023-08-08T19:55:12;16.50;97.20
1075;DHT22;526;51.392;12.448;2023-08-08T19:57:38;16.40;97.30
1075;DHT22;526;51.392;12.448;2023-08-08T20:00:04;16.40;97.30